createdAt,value
2019-05-28T00:00:25.419Z,65.90
2019-05-28T00:02:53.803Z,66.25
2019-05-28T00:05:22.581Z,66.31
2019-05-28T00:07:50.976Z,66.25
2019-05-28T00:10:19.610Z,66.60
2019-05-28T00:12:48.338Z,66.84
2019-05-28T00:15:17.172Z,67.01
2019-05-28T00:17:45.578Z,66.69
2019-05-28T00:20:14.710Z,66.57
2019-05-28T00:22:43.107Z,66.67
2019-05-28T00:25:12.053Z,67.05
2019-05-28T00:27:40.495Z,67.26
2019-05-28T00:30:19.833Z,67.44
2019-05-28T00:32:39.603Z,67.42
2019-05-28T00:35:08.746Z,67.58
2019-05-28T00:37:37.145Z,67.73
2019-05-28T00:40:06.375Z,67.68
2019-05-28T00:42:34.831Z,67.76
2019-05-28T00:45:03.481Z,67.79
2019-05-28T00:47:32.124Z,68.06
2019-05-28T00:50:00.778Z,68.26
2019-05-28T00:52:29.388Z,68.44
2019-05-28T00:54:57.797Z,68.64
2019-05-28T00:57:27.036Z,68.78
2019-05-28T00:59:56.174Z,68.75
2019-05-28T01:02:24.577Z,68.90
2019-05-28T01:04:53.309Z,69.01
2019-05-28T01:07:21.692Z,69.22
2019-05-28T01:09:50.087Z,69.29
2019-05-28T01:12:18.506Z,69.28
2019-05-28T01:14:46.891Z,69.38
2019-05-28T01:17:15.614Z,69.06
2019-05-28T01:19:44.015Z,68.75
2019-05-28T01:22:12.436Z,68.61
2019-05-28T01:24:40.840Z,68.52
2019-05-28T01:27:09.234Z,68.51
2019-05-28T01:29:37.619Z,68.53
2019-05-28T01:32:06.010Z,68.41
2019-05-28T01:34:34.421Z,68.16
2019-05-28T01:37:02.886Z,67.92
2019-05-28T01:39:31.476Z,67.64
2019-05-28T01:41:59.873Z,67.54
2019-05-28T01:44:28.280Z,67.37
2019-05-28T01:46:56.674Z,67.34
2019-05-28T01:49:25.071Z,67.22
2019-05-28T01:51:53.487Z,67.18
2019-05-28T01:54:22.180Z,67.27
2019-05-28T01:56:50.576Z,67.19
2019-05-28T01:59:18.978Z,67.08
2019-05-28T02:01:47.733Z,67.15
2019-05-28T02:04:16.122Z,67.27
2019-05-28T02:06:44.508Z,67.22
2019-05-28T02:09:12.915Z,67.31
2019-05-28T02:11:41.319Z,67.58
2019-05-28T02:14:09.725Z,67.84
2019-05-28T02:16:38.460Z,67.95
2019-05-28T02:19:06.848Z,68.13
2019-05-28T02:21:35.251Z,68.25
2019-05-28T02:24:03.722Z,68.43
2019-05-28T02:26:32.391Z,68.51
2019-05-28T02:29:00.774Z,68.61
2019-05-28T02:31:29.185Z,68.92
2019-05-28T02:33:57.842Z,68.87
2019-05-28T02:36:26.242Z,69.12
2019-05-28T02:38:54.643Z,69.21
2019-05-28T02:41:23.312Z,69.11
2019-05-28T02:43:51.705Z,68.88
2019-05-28T02:46:20.090Z,68.41
2019-05-28T02:48:48.498Z,68.25
2019-05-28T02:51:17.691Z,68.39
2019-05-28T02:53:46.228Z,68.61
2019-05-28T02:56:17.334Z,67.99
2019-05-28T02:58:47.943Z,67.40
2019-05-28T03:01:18.335Z,67.51
2019-05-28T03:03:48.337Z,67.88
2019-05-28T03:06:19.076Z,67.93
2019-05-28T03:08:50.213Z,67.94
2019-05-28T03:11:18.940Z,67.87
2019-05-28T03:13:47.345Z,67.51
2019-05-28T03:16:17.210Z,67.44
2019-05-28T03:18:46.645Z,67.68
2019-05-28T03:21:15.977Z,67.96
2019-05-28T03:23:44.584Z,68.22
2019-05-28T03:26:13.055Z,68.45
2019-05-28T03:28:41.780Z,68.67
2019-05-28T03:31:10.414Z,68.87
2019-05-28T03:33:38.889Z,69.25
2019-05-28T03:36:10.245Z,69.42
2019-05-28T03:38:39.891Z,69.75
2019-05-28T03:41:08.542Z,70.32
2019-05-28T03:43:37.280Z,70.28
2019-05-28T03:46:05.685Z,70.32
2019-05-28T03:48:34.076Z,70.46
2019-05-28T03:51:02.492Z,70.54
2019-05-28T03:53:30.894Z,70.62
2019-05-28T03:55:59.662Z,70.99
2019-05-28T03:58:28.071Z,71.23
2019-05-28T04:00:56.477Z,71.58
2019-05-28T04:03:24.865Z,71.74
2019-05-28T04:05:53.272Z,71.82
2019-05-28T04:08:21.677Z,71.89
2019-05-28T04:10:50.087Z,71.77
2019-05-28T04:13:18.562Z,71.79
2019-05-28T04:15:46.956Z,71.83
2019-05-28T04:18:15.360Z,71.79
2019-05-28T04:20:43.750Z,71.63
2019-05-28T04:23:16.295Z,71.67
2019-05-28T04:25:46.313Z,71.88
2019-05-28T04:28:14.778Z,72.06
2019-05-28T04:30:44.211Z,72.16
2019-05-28T04:33:12.601Z,72.46
2019-05-28T04:35:41.041Z,72.88
2019-05-28T04:38:09.404Z,72.99
2019-05-28T04:40:38.152Z,73.17
2019-05-28T04:43:06.626Z,73.07
2019-05-28T04:45:35.034Z,73.23
2019-05-28T04:48:03.447Z,73.08
2019-05-28T04:50:32.375Z,72.95
2019-05-28T04:53:00.769Z,72.49
2019-05-28T04:55:29.165Z,72.06
2019-05-28T04:57:57.567Z,71.99
2019-05-28T05:00:25.980Z,72.01
2019-05-28T05:02:59.177Z,72.06
2019-05-28T05:05:24.697Z,72.23
2019-05-28T05:07:53.104Z,72.19
2019-05-28T05:10:21.508Z,72.28
2019-05-28T05:12:49.906Z,72.23
2019-05-28T05:15:18.431Z,72.08
2019-05-28T05:17:46.864Z,72.07
2019-05-28T05:20:15.534Z,72.08
2019-05-28T05:22:43.945Z,71.99
2019-05-28T05:25:13.001Z,71.54
2019-05-28T05:27:41.412Z,70.96
2019-05-28T05:30:10.809Z,70.19
2019-05-28T05:32:39.213Z,69.47
2019-05-28T05:35:08.084Z,67.74
2019-05-28T05:37:36.546Z,67.50
2019-05-28T05:40:06.933Z,67.22
2019-05-28T05:42:35.818Z,66.06
2019-05-28T05:45:07.671Z,65.89
2019-05-28T05:47:36.223Z,66.37
2019-05-28T05:50:06.674Z,65.98
2019-05-28T05:52:35.060Z,65.93
2019-05-28T05:55:08.153Z,65.84
2019-05-28T05:57:38.829Z,65.15
2019-05-28T06:00:11.341Z,64.82
2019-05-28T06:02:38.156Z,65.10
2019-05-28T06:05:06.948Z,65.29
2019-05-28T06:07:39.640Z,64.79
2019-05-28T06:10:10.142Z,64.66
2019-05-28T06:12:38.791Z,64.61
2019-05-28T06:15:07.872Z,64.89
2019-05-28T06:17:36.266Z,64.48
2019-05-28T06:20:07.103Z,63.86
2019-05-28T06:22:35.503Z,63.90
2019-05-28T06:25:07.949Z,63.64
2019-05-28T06:27:41.071Z,64.24
2019-05-28T06:30:09.997Z,63.73
2019-05-28T06:32:39.008Z,62.43
2019-05-28T06:35:08.634Z,62.37
2019-05-28T06:37:37.047Z,62.21
2019-05-28T06:40:07.582Z,62.16
2019-05-28T06:42:39.285Z,61.72
2019-05-28T06:45:08.706Z,61.33
2019-05-28T06:47:37.093Z,61.25
2019-05-28T06:50:08.711Z,61.24
2019-05-28T06:52:37.348Z,60.68
2019-05-28T06:55:06.087Z,61.14
2019-05-28T06:57:34.480Z,61.14
2019-05-28T07:00:03.315Z,61.43
2019-05-28T07:02:31.730Z,61.37
2019-05-28T07:05:00.138Z,61.61
2019-05-28T07:07:28.701Z,60.38
2019-05-28T07:09:57.117Z,60.61
2019-05-28T07:12:25.786Z,60.75
2019-05-28T07:14:54.276Z,60.30
2019-05-28T07:17:22.970Z,60.42
2019-05-28T07:19:51.431Z,60.22
2019-05-28T07:22:19.786Z,59.54
2019-05-28T07:24:48.415Z,59.71
2019-05-28T07:27:16.839Z,59.88
2019-05-28T07:29:45.250Z,59.77
2019-05-28T07:32:23.328Z,59.39
2019-05-28T07:34:51.722Z,60.52
2019-05-28T07:37:20.161Z,60.47
2019-05-28T07:39:48.571Z,60.52
2019-05-28T07:42:31.715Z,60.47
2019-05-28T07:44:47.460Z,60.35
2019-05-28T07:47:15.853Z,59.77
2019-05-28T07:49:44.251Z,60.83
2019-05-28T07:52:12.653Z,60.87
2019-05-28T07:54:41.121Z,60.15
2019-05-28T07:57:09.822Z,57.58
2019-05-28T07:59:38.216Z,57.89
2019-05-28T08:02:09.684Z,56.89
2019-05-28T08:04:47.335Z,56.59
2019-05-28T08:07:08.454Z,56.49
2019-05-28T08:09:36.856Z,56.44
2019-05-28T08:12:05.258Z,56.89
2019-05-28T08:14:34.009Z,56.57
2019-05-28T08:17:02.423Z,57.09
2019-05-28T08:19:31.039Z,56.72
2019-05-28T08:21:59.452Z,56.76
2019-05-28T08:24:27.834Z,56.89
2019-05-28T08:26:56.225Z,56.47
2019-05-28T08:29:24.645Z,56.20
2019-05-28T08:31:53.119Z,54.95
2019-05-28T08:34:21.539Z,55.87
2019-05-28T08:37:04.187Z,54.90
2019-05-28T08:39:20.034Z,55.36
2019-05-28T08:41:48.442Z,54.49
2019-05-28T08:44:16.833Z,55.86
2019-05-28T08:46:45.257Z,57.22
2019-05-28T08:49:14.038Z,59.49
2019-05-28T08:51:42.721Z,60.12
2019-05-28T08:54:11.138Z,61.38
2019-05-28T08:56:39.519Z,64.36
2019-05-28T08:59:08.182Z,63.95
2019-05-28T09:01:36.891Z,60.97
2019-05-28T09:04:05.557Z,61.64
2019-05-28T09:06:34.250Z,60.89
2019-05-28T09:09:02.761Z,59.69
2019-05-28T09:11:31.165Z,60.72
2019-05-28T09:13:59.823Z,60.57
2019-05-28T09:16:28.216Z,59.39
2019-05-28T09:18:56.681Z,59.27
2019-05-28T09:21:25.008Z,57.20
2019-05-28T09:23:53.406Z,57.28
2019-05-28T09:26:21.805Z,54.32
2019-05-28T09:28:50.349Z,54.00
2019-05-28T09:31:19.202Z,54.17
2019-05-28T09:33:47.592Z,55.87
2019-05-28T09:36:15.993Z,53.97
2019-05-28T09:38:44.659Z,53.23
2019-05-28T09:41:16.306Z,52.16
2019-05-28T09:43:44.729Z,52.36
2019-05-28T09:46:13.414Z,53.53
2019-05-28T09:48:46.299Z,53.99
2019-05-28T09:51:14.695Z,54.95
2019-05-28T09:53:43.320Z,53.13
2019-05-28T09:56:12.057Z,54.22
2019-05-28T09:58:40.445Z,54.79
2019-05-28T10:01:08.912Z,54.87
2019-05-28T10:03:37.315Z,54.69
2019-05-28T10:06:16.079Z,53.31
2019-05-28T10:08:35.827Z,54.41
2019-05-28T10:11:04.225Z,53.33
2019-05-28T10:13:38.813Z,53.12
2019-05-28T10:16:03.019Z,50.46
2019-05-28T10:18:31.429Z,51.07
2019-05-28T10:21:14.694Z,49.42
2019-05-28T10:23:29.942Z,50.27
2019-05-28T10:25:58.335Z,49.65
2019-05-28T10:28:26.814Z,49.84
2019-05-28T10:30:56.998Z,47.89
2019-05-28T10:33:27.004Z,47.45
2019-05-28T10:35:55.509Z,48.26
2019-05-28T10:38:24.168Z,49.26
2019-05-28T10:40:52.626Z,49.47
2019-05-28T10:43:21.142Z,50.73
2019-05-28T10:45:49.527Z,52.51
2019-05-28T10:48:18.033Z,54.43
2019-05-28T10:50:46.709Z,56.05
2019-05-28T10:53:15.330Z,55.99
2019-05-28T10:55:43.721Z,57.92
2019-05-28T10:58:12.370Z,59.51
2019-05-28T11:00:41.275Z,61.76
2019-05-28T11:03:09.672Z,61.73
2019-05-28T11:05:38.055Z,63.57
2019-05-28T11:08:06.494Z,66.67
2019-05-28T11:10:34.902Z,67.01
2019-05-28T11:13:03.638Z,65.20
2019-05-28T11:15:32.085Z,65.80
2019-05-28T11:18:02.001Z,67.71
2019-05-28T11:20:31.705Z,68.35
2019-05-28T11:23:00.393Z,71.23
2019-05-28T11:25:28.956Z,72.27
2019-05-28T11:27:59.514Z,74.13
2019-05-28T11:30:28.121Z,74.59
2019-05-28T11:32:56.736Z,76.41
2019-05-28T11:35:27.134Z,78.22
2019-05-28T11:37:55.521Z,77.57
2019-05-28T11:40:24.601Z,78.81
2019-05-28T11:42:53.300Z,75.97
2019-05-28T11:45:22.421Z,73.19
2019-05-28T11:47:51.561Z,75.99
2019-05-28T11:50:20.616Z,74.54
2019-05-28T11:52:51.933Z,72.06
2019-05-28T11:55:23.158Z,70.47
2019-05-28T11:57:51.540Z,69.18
2019-05-28T12:00:20.691Z,65.32
2019-05-28T12:02:49.096Z,62.17
2019-05-28T12:05:18.523Z,64.87
2019-05-28T12:07:46.980Z,58.16
2019-05-28T12:10:16.116Z,59.22
2019-05-28T12:12:44.690Z,59.09
2019-05-28T12:15:15.231Z,58.96
2019-05-28T12:17:45.505Z,57.54
2019-05-28T12:20:15.817Z,54.96
2019-05-28T12:22:44.365Z,52.94
2019-05-28T12:25:13.900Z,53.04
2019-05-28T12:27:42.294Z,53.52
2019-05-28T12:30:13.130Z,55.19
2019-05-28T12:32:41.566Z,53.55
2019-05-28T12:35:27.561Z,53.58
2019-05-28T12:37:48.124Z,52.53
2019-05-28T12:40:13.360Z,50.88
2019-05-28T12:42:41.766Z,51.05
2019-05-28T12:45:11.174Z,50.59
2019-05-28T12:47:39.573Z,49.84
2019-05-28T12:50:20.635Z,48.88
2019-05-28T12:52:39.970Z,49.93
2019-05-28T12:55:12.114Z,49.03
2019-05-28T12:57:40.550Z,50.45
2019-05-28T13:00:10.276Z,52.11
2019-05-28T13:02:39.127Z,51.92
2019-05-28T13:05:11.282Z,52.87
2019-05-28T13:07:41.784Z,53.06
2019-05-28T13:10:10.346Z,53.60
2019-05-28T13:12:39.018Z,54.85
2019-05-28T13:15:08.020Z,53.92
2019-05-28T13:17:38.468Z,53.79
2019-05-28T13:20:11.020Z,54.24
2019-05-28T13:22:40.155Z,53.88
2019-05-28T13:25:11.094Z,53.55
2019-05-28T13:27:45.231Z,51.83
2019-05-28T13:30:16.345Z,52.17
2019-05-28T13:32:47.910Z,52.07
2019-05-28T13:35:17.758Z,50.60
2019-05-28T13:37:46.160Z,47.49
2019-05-28T13:40:20.786Z,48.21
2019-05-28T13:42:49.407Z,48.18
2019-05-28T13:45:18.688Z,47.46
2019-05-28T13:47:47.145Z,46.87
2019-05-28T13:50:16.148Z,48.32
2019-05-28T13:52:44.524Z,48.19
2019-05-28T13:55:15.007Z,48.30
2019-05-28T13:57:43.486Z,49.69
2019-05-28T14:00:17.603Z,49.67
2019-05-28T14:02:46.837Z,48.13
2019-05-28T14:05:17.229Z,47.99
2019-05-28T14:07:45.625Z,49.28
2019-05-28T14:10:16.246Z,49.74
2019-05-28T14:12:44.654Z,48.99
2019-05-28T14:15:13.568Z,49.47
2019-05-28T14:17:41.951Z,47.42
2019-05-28T14:20:11.594Z,47.53
2019-05-28T14:22:39.983Z,47.13
2019-05-28T14:25:10.204Z,47.35
2019-05-28T14:27:38.607Z,47.96
2019-05-28T14:30:15.796Z,48.79
2019-05-28T14:32:44.197Z,50.04
2019-05-28T14:35:12.728Z,49.49
2019-05-28T14:37:41.114Z,48.96
2019-05-28T14:40:10.148Z,47.99
2019-05-28T14:42:44.667Z,48.80
2019-05-28T14:45:14.088Z,47.41
2019-05-28T14:47:43.280Z,46.41
2019-05-28T14:50:18.093Z,48.07
2019-05-28T14:52:46.763Z,48.05
2019-05-28T14:55:15.498Z,48.30
2019-05-28T14:57:44.143Z,47.01
2019-05-28T15:00:15.777Z,47.49
2019-05-28T15:02:48.825Z,49.59
2019-05-28T15:05:17.509Z,48.72
2019-05-28T15:07:46.311Z,50.64
2019-05-28T15:10:16.839Z,51.40
2019-05-28T15:12:46.146Z,52.01
2019-05-28T15:15:15.723Z,52.30
2019-05-28T15:17:44.099Z,52.17
2019-05-28T15:20:13.432Z,52.84
2019-05-28T15:22:41.833Z,54.73
2019-05-28T15:25:11.538Z,54.97
2019-05-28T15:27:39.995Z,55.31
2019-05-28T15:30:10.771Z,55.05
2019-05-28T15:32:39.178Z,55.43
2019-05-28T15:35:10.319Z,54.63
2019-05-28T15:37:39.090Z,54.61
2019-05-28T15:40:08.479Z,54.37
2019-05-28T15:42:37.051Z,55.02
2019-05-28T15:45:09.474Z,54.47
2019-05-28T15:47:39.011Z,55.37
2019-05-28T15:50:09.244Z,54.13
2019-05-28T15:52:37.627Z,54.72
2019-05-28T15:55:10.265Z,54.44
2019-05-28T15:57:38.658Z,52.94
2019-05-28T16:00:08.243Z,52.80
2019-05-28T16:02:37.137Z,53.35
2019-05-28T16:05:07.075Z,53.77
2019-05-28T16:07:35.804Z,53.23
2019-05-28T16:10:07.984Z,53.39
2019-05-28T16:12:36.690Z,54.47
2019-05-28T16:15:09.913Z,53.28
2019-05-28T16:17:38.303Z,53.01
2019-05-28T16:20:08.642Z,53.61
2019-05-28T16:22:37.270Z,54.13
2019-05-28T16:25:08.011Z,53.33
2019-05-28T16:27:36.898Z,54.27
2019-05-28T16:30:10.525Z,53.52
2019-05-28T16:32:38.948Z,53.69
2019-05-28T16:35:08.208Z,54.00
2019-05-28T16:37:36.760Z,54.88
2019-05-28T16:40:16.927Z,54.92
2019-05-28T16:42:40.687Z,54.49
2019-05-28T16:45:10.129Z,55.22
2019-05-28T16:47:38.557Z,54.95
2019-05-28T16:50:08.378Z,55.30
2019-05-28T16:52:36.785Z,55.43
2019-05-28T16:55:07.324Z,54.86
2019-05-28T16:57:35.740Z,55.85
2019-05-28T17:00:06.315Z,56.73
2019-05-28T17:02:35.029Z,57.62
2019-05-28T17:05:05.380Z,57.48
2019-05-28T17:07:34.061Z,56.71
2019-05-28T17:10:02.534Z,57.78
2019-05-28T17:12:31.106Z,57.99
2019-05-28T17:14:59.623Z,56.97
2019-05-28T17:17:28.015Z,58.52
2019-05-28T17:19:56.459Z,59.15
2019-05-28T17:22:24.849Z,59.30
2019-05-28T17:24:53.254Z,60.47
2019-05-28T17:27:21.938Z,61.62
2019-05-28T17:29:50.782Z,61.74
2019-05-28T17:32:19.311Z,62.37
2019-05-28T17:34:47.719Z,62.94
2019-05-28T17:37:16.203Z,63.13
2019-05-28T17:39:44.594Z,62.99
2019-05-28T17:42:13.008Z,63.01
2019-05-28T17:44:41.421Z,63.38
2019-05-28T17:47:09.803Z,64.09
2019-05-28T17:49:38.220Z,64.06
2019-05-28T17:52:06.610Z,62.75
2019-05-28T17:54:35.012Z,63.42
2019-05-28T17:57:03.410Z,63.42
2019-05-28T17:59:31.803Z,63.57
2019-05-28T18:02:00.542Z,64.54
2019-05-28T18:04:28.937Z,64.72
2019-05-28T18:06:57.347Z,64.91
2019-05-28T18:09:25.743Z,65.26
2019-05-28T18:11:54.462Z,65.43
2019-05-28T18:14:23.856Z,65.05
2019-05-28T18:16:52.401Z,65.49
2019-05-28T18:19:21.768Z,65.66
2019-05-28T18:21:50.422Z,65.71
2019-05-28T18:24:28.655Z,65.45
2019-05-28T18:26:57.282Z,65.61
2019-05-28T18:29:25.662Z,65.96
2019-05-28T18:31:54.071Z,65.53
2019-05-28T18:34:22.814Z,65.78
2019-05-28T18:36:51.442Z,66.13
2019-05-28T18:39:25.349Z,66.61
2019-05-28T18:41:51.546Z,66.88
2019-05-28T18:44:19.939Z,66.58
2019-05-28T18:46:48.624Z,66.90
2019-05-28T18:49:17.296Z,67.41
2019-05-28T18:51:45.711Z,67.25
2019-05-28T18:54:14.578Z,66.88
2019-05-28T18:56:42.983Z,66.87
2019-05-28T18:59:11.452Z,66.63
2019-05-28T19:01:41.128Z,67.02
2019-05-28T19:04:09.981Z,67.40
2019-05-28T19:06:38.356Z,67.46
2019-05-28T19:09:11.483Z,67.27
2019-05-28T19:11:39.405Z,66.93
2019-05-28T19:14:08.097Z,67.06
2019-05-28T19:16:36.573Z,67.46
2019-05-28T19:19:05.013Z,67.87
2019-05-28T19:21:33.792Z,67.96
2019-05-28T19:24:02.268Z,67.56
2019-05-28T19:26:30.651Z,68.13
2019-05-28T19:28:59.051Z,67.94
2019-05-28T19:31:27.696Z,67.92
2019-05-28T19:33:56.634Z,67.84
2019-05-28T19:36:25.523Z,68.08
2019-05-28T19:38:54.966Z,68.19
2019-05-28T19:41:23.694Z,68.26
2019-05-28T19:43:52.098Z,68.21
2019-05-28T19:46:20.808Z,68.25
2019-05-28T19:48:49.292Z,68.29
2019-05-28T19:51:19.637Z,68.38
2019-05-28T19:53:48.016Z,68.70
2019-05-28T19:56:16.412Z,68.97
2019-05-28T19:58:44.809Z,68.97
2019-05-28T20:01:13.241Z,69.28
2019-05-28T20:03:41.641Z,69.24
2019-05-28T20:06:10.397Z,69.41
2019-05-28T20:08:38.784Z,69.30
2019-05-28T20:11:07.703Z,69.14
2019-05-28T20:13:38.522Z,69.27
2019-05-28T20:16:07.325Z,69.11
2019-05-28T20:18:36.199Z,69.24
2019-05-28T20:21:05.184Z,68.92
2019-05-28T20:23:33.848Z,69.09
2019-05-28T20:26:02.351Z,68.92
2019-05-28T20:28:31.087Z,68.86
2019-05-28T20:30:59.762Z,68.78
2019-05-28T20:33:28.331Z,69.08
2019-05-28T20:35:56.740Z,68.96
2019-05-28T20:38:25.446Z,68.97
2019-05-28T20:40:53.842Z,68.87
2019-05-28T20:43:22.240Z,68.51
2019-05-28T20:45:50.887Z,68.29
2019-05-28T20:48:19.417Z,67.95
2019-05-28T20:50:47.809Z,68.49
2019-05-28T20:53:16.224Z,68.23
2019-05-28T20:55:44.851Z,67.72
2019-05-28T20:58:13.248Z,67.72
2019-05-28T21:00:41.649Z,67.70
2019-05-28T21:03:10.042Z,67.80
2019-05-28T21:05:38.519Z,67.50
2019-05-28T21:08:06.935Z,67.42
2019-05-28T21:10:35.337Z,67.44
2019-05-28T21:13:03.978Z,67.27
2019-05-28T21:15:32.394Z,67.12
2019-05-28T21:18:00.788Z,67.12
2019-05-28T21:20:29.255Z,67.01
2019-05-28T21:22:58.129Z,67.06
2019-05-28T21:25:26.552Z,66.96
2019-05-28T21:27:56.369Z,66.91
2019-05-28T21:30:24.866Z,66.77
2019-05-28T21:32:53.267Z,66.50
2019-05-28T21:35:21.658Z,66.65
2019-05-28T21:37:50.981Z,66.57
2019-05-28T21:40:24.802Z,66.60
2019-05-28T21:43:02.956Z,66.95
2019-05-28T21:45:23.318Z,66.97
2019-05-28T21:47:52.399Z,66.62
2019-05-28T21:50:21.591Z,66.82
2019-05-28T21:52:49.992Z,66.72
2019-05-28T21:55:18.469Z,67.14
2019-05-28T21:57:46.869Z,67.08
2019-05-28T22:00:23.317Z,67.37
2019-05-28T22:02:51.711Z,67.46
2019-05-28T22:05:20.159Z,67.66
2019-05-28T22:07:48.560Z,67.75
2019-05-28T22:10:17.407Z,67.55
2019-05-28T22:12:46.044Z,67.54
2019-05-28T22:15:14.688Z,67.65
2019-05-28T22:17:43.084Z,67.96
2019-05-28T22:20:11.555Z,67.91
2019-05-28T22:22:39.954Z,68.19
2019-05-28T22:25:08.868Z,68.40
2019-05-28T22:27:37.200Z,68.44
2019-05-28T22:30:11.104Z,68.95
2019-05-28T22:32:39.723Z,68.84
2019-05-28T22:35:08.478Z,69.04
2019-05-28T22:37:36.848Z,68.22
2019-05-28T22:40:09.131Z,68.71
2019-05-28T22:42:37.769Z,68.72
2019-05-28T22:45:07.174Z,68.89
2019-05-28T22:47:35.837Z,69.20
2019-05-28T22:50:19.556Z,69.25
2019-05-28T22:52:38.722Z,69.51
2019-05-28T22:55:08.467Z,69.59
2019-05-28T22:57:37.092Z,69.76
2019-05-28T23:00:08.674Z,70.01
2019-05-28T23:02:37.262Z,69.85
2019-05-28T23:05:07.245Z,69.88
2019-05-28T23:07:35.681Z,70.19
2019-05-28T23:10:08.272Z,70.30
2019-05-28T23:12:36.664Z,70.55
2019-05-28T23:15:08.649Z,70.51
2019-05-28T23:17:37.100Z,70.75
2019-05-28T23:20:11.216Z,70.85
2019-05-28T23:22:40.184Z,71.08
2019-05-28T23:25:09.743Z,71.39
2019-05-28T23:27:38.270Z,71.81
2019-05-28T23:30:21.300Z,71.58
2019-05-28T23:32:37.705Z,71.61
2019-05-28T23:35:09.032Z,71.66
2019-05-28T23:37:37.433Z,71.76
2019-05-28T23:40:07.564Z,71.53
2019-05-28T23:42:35.958Z,70.78
2019-05-28T23:45:06.091Z,70.87
2019-05-28T23:47:34.499Z,70.67
2019-05-28T23:50:04.296Z,70.32
2019-05-28T23:52:32.738Z,69.98
2019-05-28T23:55:01.162Z,70.09
2019-05-28T23:57:44.306Z,70.08
